Pagina principale
METAR-TAF:

METAR-TAF

Aeroporti :

Saint-Brieuc, Francia

latitudine: 48-32N, longitudine: 002-51W, altezza: 138 m

Osservazione

Il bollettino è stato emesso 19 minuti fa, alle 10:00 UTC
Vento 8 kt da nord-ovest, variando fra ovest e nord
Temperature 14°C
Umidità 77%
Pressione 1010 hPa
Visibilità 10 km o più
Nubi sparse ad un'altezza di 1800 ft
Nuvoloso ad un'altezza di 3200 ft
Nuvoloso ad un'altezza di 4100 ft

METAR: LFRT 071000Z AUTO 31008KT 280V350 9999 SCT018 BKN032 BKN041 14/10 Q1010

Ora: 12:19 (10:19 UTC)


TAF: mancante

Osservazioni e previsioni meteorologiche di più di 4000 aeroporti (messaggi METAR e TAF).

Le stazioni disponibili sono rappresentate dai dischi gialli e rossi sulla carta.

Puntare il mouse per vedere il nome della stazione.

Clicca sopra per visualizzare le osservazioni e previsioni meteorologiche.

Per cambiare la mappa : fare clic sui pulsanti verdi con una croce nera per ingrandire, il pulsante verde con un trattino per diminuire, o sulla freccia verde per le mappe adiacenti.


METAR-TAF: